Latest Weather Observations for Ngayawili (Elcho Island)

IDD60801

Issued at 5:11 pm CST Sunday 15 September 2019 (issued every 10 minutes, with the page automatically refreshed every 10 minutes)

About weather observations | Map of weather stations | Latest weather observations for NT | Other Formats
Station Details ID: 014517 Name: NGAYAWILI Lat: -12.00 Lon: 135.57 Height: 8.1 m
Data from the previous 72 hours. | See also: Recent months at Ngayawili (Elcho Island)
Date/Time
CST
Temp
°C
App
Temp
°C
Dew
Point
°C
Rel
Hum
%
Delta-T
°C
Wind Press
QNH
hPa
Press
MSL
hPa
Rain since
9am
mm
Dir  Spd
km/h
Gust
km/h
Spd
kts
Gust
kts
15/05:00pm 28.4 27.1 16.7 49 7.3 ENE 19 28 10 15 1013.4 1013.3 0.0
15/04:30pm 29.5 26.9 13.7 38 9.5 E 20 37 11 20 1013.1 1013.0 0.0
15/04:00pm 30.5 29.0 14.2 37 9.9 E 15 26 8 14 1013.1 1013.0 0.0
15/03:30pm 30.3 28.1 14.4 38 9.6 ESE 19 28 10 15 1013.0 1012.9 0.0
15/03:00pm 30.1 27.4 13.4 36 10.0 ESE 20 33 11 18 1013.1 1013.0 0.0
15/02:30pm 30.3 28.2 15.2 40 9.3 ESE 20 33 11 18 1013.4 1013.3 0.0
15/02:00pm 30.3 29.3 16.7 44 8.5 E 17 30 9 16 1013.6 1013.5 0.0
15/01:30pm 30.3 28.9 17.0 44 8.4 ESE 20 32 11 17 1013.9 1013.8 0.0
15/01:00pm 29.7 28.5 17.5 48 7.7 E 20 32 11 17 1014.3 1014.2 0.0
15/12:30pm 29.6 28.7 17.8 49 7.5 E 19 28 10 15 1014.9 1014.8 0.0
15/12:00pm 29.0 28.4 17.5 49 7.3 E 17 30 9 16 1015.5 1015.4 0.0
15/11:30am 28.2 26.8 18.0 54 6.5 E 22 39 12 21 1016.0 1015.9 0.0
15/11:00am 28.0 27.0 17.5 52 6.6 E 19 32 10 17 1016.4 1016.3 0.0
15/10:30am 27.3 26.1 17.5 55 6.2 ESE 20 39 11 21 1016.7 1016.6 0.0
15/10:00am 27.2 26.0 17.1 54 6.3 E 19 28 10 15 1017.0 1016.9 0.0
15/09:30am 26.7 26.5 17.5 57 5.8 E 15 28 8 15 1017.1 1017.0 0.0
15/09:00am 25.8 25.8 18.0 62 4.9 ESE 15 26 8 14 1017.1 1017.0 0.0
15/08:30am 24.4 24.7 17.9 67 4.1 SE 13 22 7 12 1016.9 1016.8 0.0
15/08:00am 22.9 23.2 17.8 73 3.2 SE 13 19 7 10 1016.9 1016.8 0.0
15/07:30am 21.1 22.5 17.7 81 2.1 SE 7 11 4 6 1016.8 1016.7 0.0
15/07:00am 19.2 20.3 17.0 87 1.3 SE 7 9 4 5 1016.5 1016.4 0.0
15/06:30am 18.9 19.5 16.7 87 1.3 SE 9 11 5 6 1016.1 1016.0 0.0
15/06:00am 19.1 19.6 16.5 85 1.6 SSE 9 13 5 7 1015.8 1015.7 0.0
15/05:30am 18.9 19.0 16.5 86 1.4 SE 11 15 6 8 1015.5 1015.4 0.0
15/05:00am 18.6 18.8 15.7 83 1.7 SE 9 11 5 6 1015.5 1015.4 0.0
15/04:30am 18.3 18.3 15.2 82 1.8 SE 9 11 5 6 1015.3 1015.2 0.0
15/04:00am 17.8 17.8 15.1 84 1.6 SE 9 11 5 6 1015.2 1015.1 0.0
15/03:30am 17.5 17.7 14.8 84 1.6 SE 7 9 4 5 1015.2 1015.1 0.0
15/03:00am 17.8 17.8 15.1 84 1.6 SSE 9 9 5 5 1015.2 1015.1 0.0
15/02:30am 17.8 17.8 15.2 85 1.5 SE 9 11 5 6 1015.4 1015.3 0.0
15/02:00am 17.9 18.3 15.2 84 1.6 SSE 7 9 4 5 1015.6 1015.5 0.0
15/01:30am 18.8 19.3 15.5 81 1.9 SSE 7 9 4 5 1015.9 1015.8 0.0
15/01:00am 19.5 20.0 15.6 78 2.3 SSE 7 9 4 5 1016.3 1016.2 0.0
15/12:30am 20.7 21.2 15.5 72 3.1 SSE 7 9 4 5 1016.4 1016.3 0.0
15/12:00am 21.6 21.5 15.9 70 3.4 SE 11 17 6 9 1016.6 1016.5 0.0
 
Date/Time
CST
Temp
°C
App
Temp
°C
Dew
Point
°C
Rel
Hum
%
Delta-T
°C
Wind Press
QNH
hPa
Press
MSL
hPa
Rain since
9am
mm
Dir  Spd
km/h
Gust
km/h
Spd
kts
Gust
kts
14/11:30pm 21.9 21.5 15.3 66 3.9 SSE 11 15 6 8 1016.8 1016.7 0.0
14/11:00pm 22.3 22.0 15.4 65 4.1 SE 11 19 6 10 1016.9 1016.8 0.0
14/10:30pm 22.3 21.8 14.9 63 4.4 SE 11 15 6 8 1017.0 1016.9 0.0
14/10:00pm 22.8 22.3 13.8 57 5.2 SE 9 15 5 8 1017.0 1016.9 0.0
14/09:30pm 23.5 21.9 12.8 51 6.1 SE 13 20 7 11 1017.0 1016.9 0.0
14/09:00pm 24.0 22.0 12.6 49 6.5 ESE 15 24 8 13 1016.8 1016.7 0.0
14/08:30pm 24.5 22.4 12.5 47 6.9 ESE 15 24 8 13 1016.4 1016.3 0.0
14/08:00pm 24.8 23.1 13.7 50 6.5 ESE 15 26 8 14 1016.0 1015.9 0.0
14/07:30pm 25.5 23.1 12.7 45 7.4 ESE 17 28 9 15 1015.5 1015.4 0.0
14/07:00pm 26.1 23.2 12.2 42 8.0 ESE 19 30 10 16 1015.0 1014.9 0.0
14/06:30pm 26.6 24.2 12.6 42 8.1 ESE 17 32 9 17 1014.5 1014.4 0.0
14/06:00pm 27.4 25.1 13.0 41 8.4 ESE 17 30 9 16 1014.2 1014.1 0.0
14/05:30pm 28.3 24.9 11.4 35 9.7 E 20 33 11 18 1013.9 1013.8 0.0
14/05:00pm 29.0 25.9 11.6 34 10.0 E 19 32 10 17 1013.5 1013.4 0.0
14/04:30pm 29.3 25.8 12.3 35 9.9 E 22 39 12 21 1013.4 1013.3 0.0
14/04:00pm 29.7 26.7 12.6 35 10.1 ESE 20 39 11 21 1013.3 1013.2 0.0
14/03:30pm 29.6 26.6 13.8 38 9.5 E 22 37 12 20 1013.4 1013.3 0.0
14/03:00pm 29.9 28.0 15.2 41 9.0 E 19 41 10 22 1013.7 1013.6 0.0
14/02:30pm 30.0 27.7 15.7 42 8.8 E 22 35 12 19 1013.9 1013.8 0.0
14/02:00pm 30.4 29.2 16.0 41 9.0 E 17 37 9 20 1014.2 1014.1 0.0
14/01:30pm 30.4 28.1 15.7 41 9.1 E 22 37 12 20 1014.7 1014.6 0.0
14/01:00pm 30.2 28.6 16.6 44 8.5 ESE 20 35 11 19 1015.3 1015.2 0.0
14/12:30pm 29.6 28.4 17.1 47 7.9 E 19 32 10 17 1015.9 1015.8 0.0
14/12:00pm 28.6 27.4 17.5 51 7.0 E 20 35 11 19 1016.6 1016.5 0.0
14/11:30am 28.7 28.0 18.2 53 6.7 E 19 33 10 18 1017.0 1016.9 0.0
14/11:00am 28.1 27.1 17.6 53 6.6 ESE 19 33 10 18 1017.2 1017.1 0.0
14/10:30am 27.7 27.1 17.5 53 6.4 E 17 30 9 16 1017.4 1017.3 0.0
14/10:00am 27.3 26.3 17.5 55 6.2 E 19 33 10 18 1017.6 1017.5 0.0
14/09:30am 26.1 24.5 16.4 55 6.0 ESE 20 35 11 19 1017.6 1017.5 0.0
14/09:00am 25.7 24.8 16.8 58 5.5 ESE 17 26 9 14 1017.6 1017.5 0.0
14/08:30am 24.0 24.1 17.5 67 4.0 ESE 13 20 7 11 1017.5 1017.4 0.0
14/08:00am 22.0 22.7 18.0 78 2.5 SE 11 17 6 9 1017.4 1017.3 0.0
14/07:30am 20.6 22.3 18.5 88 1.3 SE 7 13 4 7 1017.1 1017.0 0.0
14/07:00am 19.5 20.7 18.2 92 0.8 SSE 9 13 5 7 1016.9 1016.8 0.0
14/06:30am 19.3 20.0 18.0 92 0.8 SSE 11 17 6 9 1016.5 1016.4 0.0
14/06:00am 19.3 20.0 18.0 92 0.8 SSE 11 15 6 8 1016.2 1016.1 0.0
14/05:30am 19.5 19.9 18.2 92 0.8 SSE 13 19 7 10 1016.1 1016.0 0.0
14/05:00am 19.5 20.0 18.3 93 0.7 SSE 13 17 7 9 1015.8 1015.7 0.0
14/04:30am 19.6 20.1 18.4 93 0.7 SSE 13 19 7 10 1015.6 1015.5 0.0
14/04:00am 19.8 20.4 18.5 92 0.8 SSE 13 19 7 10 1015.5 1015.4 0.0
14/03:30am 20.0 21.0 18.7 92 0.8 SSE 11 15 6 8 1015.6 1015.5 0.0
14/03:00am 20.3 21.7 18.6 90 1.1 SSE 9 11 5 6 1015.8 1015.7 0.0
14/02:30am 20.9 22.4 18.8 88 1.3 SSE 9 13 5 7 1016.1 1016.0 0.0
14/02:00am 21.4 22.2 19.0 86 1.5 SE 13 19 7 10 1016.4 1016.3 0.0
14/01:30am 21.7 22.5 19.1 85 1.6 SSE 13 20 7 11 1016.8 1016.7 0.0
14/01:00am 21.8 23.0 19.0 84 1.8 SE 11 20 6 11 1017.2 1017.1 0.0
14/12:30am 22.0 23.5 19.0 83 1.9 SE 9 15 5 8 1017.5 1017.4 0.0
14/12:00am 22.4 23.2 19.0 81 2.1 SE 13 22 7 12 1017.7 1017.6 0.0
 
Date/Time
CST
Temp
°C
App
Temp
°C
Dew
Point
°C
Rel
Hum
%
Delta-T
°C
Wind Press
QNH
hPa
Press
MSL
hPa
Rain since
9am
mm
Dir  Spd
km/h
Gust
km/h
Spd
kts
Gust
kts
13/11:30pm 22.5 23.5 18.7 79 2.4 SE 11 15 6 8 1017.9 1017.8 0.0
13/11:00pm 22.6 23.9 18.4 77 2.6 SE 9 13 5 7 1018.1 1018.0 0.0
13/10:30pm 23.1 23.9 18.2 74 3.1 ESE 11 19 6 10 1018.0 1017.9 0.0
13/10:00pm 23.4 23.7 17.8 71 3.5 ESE 13 22 7 12 1017.9 1017.8 0.0
13/09:30pm 23.8 23.6 17.5 68 3.9 SE 15 24 8 13 1017.7 1017.6 0.0
13/09:00pm 24.2 23.5 17.4 65 4.2 SE 17 28 9 15 1017.5 1017.4 0.0
13/08:30pm 24.7 24.0 17.4 64 4.5 ESE 17 30 9 16 1017.1 1017.0 0.0
13/08:00pm 25.1 25.1 17.1 61 5.0 ESE 13 26 7 14 1016.7 1016.6 0.0
13/07:30pm 25.7 24.9 16.0 55 5.9 ESE 15 28 8 15 1016.3 1016.2 0.0
13/07:00pm 26.2 24.7 15.3 51 6.6 ESE 17 28 9 15 1015.6 1015.5 0.0
13/06:30pm 26.7 25.3 14.5 47 7.3 ESE 15 30 8 16 1015.1 1015.0 0.0
13/06:00pm 27.7 24.9 12.5 39 8.8 ESE 19 32 10 17 1014.7 1014.6 0.0
13/05:30pm 28.4 25.6 13.1 39 9.0 E 20 30 11 16 1014.3 1014.2 0.0
13/05:00pm 29.1 26.8 12.9 37 9.6 E 17 28 9 15 1014.2 1014.1 0.0
13/04:30pm 29.3 26.9 14.3 40 9.0 E 20 37 11 20 1014.1 1014.0 0.0
13/04:00pm 29.5 27.0 14.1 39 9.3 E 20 35 11 19 1013.9 1013.8 0.0
13/03:30pm 30.2 27.6 13.9 37 9.8 ESE 20 39 11 21 1013.9 1013.8 0.0
13/03:00pm 30.3 27.6 13.6 36 10.0 ESE 20 33 11 18 1014.0 1013.9 0.0
13/02:30pm 29.9 27.0 14.0 37 9.6 E 22 32 12 17 1014.3 1014.2 0.0
13/02:00pm 30.8 28.1 13.6 35 10.3 E 20 41 11 22 1014.7 1014.6 0.0
13/01:30pm 30.5 27.1 12.4 33 10.6 E 22 37 12 20 1015.2 1015.1 0.0
13/01:00pm 30.6 26.8 12.5 33 10.7 ESE 24 39 13 21 1015.7 1015.6 0.0
13/12:30pm 30.3 27.4 14.0 37 9.8 ESE 22 33 12 18 1016.3 1016.2 0.0
13/12:00pm 29.2 26.2 13.8 39 9.2 E 22 43 12 23 1016.8 1016.7 0.0
13/11:30am 28.7 25.6 14.5 42 8.6 ESE 24 43 13 23 1017.3 1017.2 0.0
13/11:00am 28.6 25.5 13.3 39 9.1 ESE 22 37 12 20 1017.7 1017.6 0.0
13/10:30am 27.8 24.6 13.0 40 8.7 ESE 22 39 12 21 1018.0 1017.9 0.0
13/10:00am 27.2 25.1 14.6 46 7.6 ESE 19 30 10 16 1018.4 1018.3 0.0
13/09:30am 26.4 24.7 15.8 52 6.5 SE 19 32 10 17 1018.4 1018.3 0.0
13/09:00am 24.5 23.7 16.2 60 5.1 SE 15 24 8 13 1018.5 1018.4 0.0
13/08:30am 22.7 22.8 17.4 72 3.3 SE 13 19 7 10 1018.5 1018.4 0.0
13/08:00am 21.1 21.2 17.5 80 2.2 SSE 13 20 7 11 1018.4 1018.3 0.0
13/07:30am 19.9 20.2 18.0 89 1.2 SSE 13 19 7 10 1018.1 1018.0 0.0
13/07:00am 19.1 20.2 17.9 93 0.7 SE 9 15 5 8 1018.0 1017.9 0.0
13/06:30am 18.8 19.0 17.6 93 0.7 SSE 13 17 7 9 1017.5 1017.4 0.0
13/06:00am 18.8 19.4 17.6 93 0.7 SSE 11 15 6 8 1017.1 1017.0 0.0
13/05:30am 18.8 19.3 17.5 92 0.8 SSE 11 17 6 9 1016.7 1016.6 0.0
13/05:00am 18.9 19.1 17.6 92 0.8 SSE 13 17 7 9 1016.4 1016.3 0.0
13/04:30am 19.0 19.2 17.7 92 0.8 SSE 13 15 7 8 1016.1 1016.0 0.0
13/04:00am 19.0 19.1 17.5 91 0.9 SSE 13 17 7 9 1016.0 1015.9 0.0
13/03:30am 19.3 19.4 17.4 89 1.2 SSE 13 17 7 9 1016.1 1016.0 0.0
13/03:00am 19.6 19.4 17.6 88 1.2 SSE 15 19 8 10 1016.3 1016.2 0.0
13/02:30am 19.9 19.7 17.7 87 1.3 SSE 15 19 8 10 1016.4 1016.3 0.0
13/02:00am 20.5 20.9 18.1 86 1.5 SSE 13 17 7 9 1016.7 1016.6 0.0
13/01:30am 21.0 21.3 18.0 83 1.9 SSE 13 19 7 10 1016.8 1016.7 0.0
13/01:00am 21.2 21.9 18.0 82 2.0 SSE 11 17 6 9 1016.9 1016.8 0.0
13/12:30am 21.6 21.6 18.2 81 2.1 SE 15 22 8 12 1017.2 1017.1 0.0
13/12:00am 21.7 22.1 18.1 80 2.2 SE 13 17 7 9 1017.6 1017.5 0.0
 
Date/Time
CST
Temp
°C
App
Temp
°C
Dew
Point
°C
Rel
Hum
%
Delta-T
°C
Wind Press
QNH
hPa
Press
MSL
hPa
Rain since
9am
mm
Dir  Spd
km/h
Gust
km/h
Spd
kts
Gust
kts
12/11:30pm 22.2 22.6 18.2 78 2.5 SE 13 20 7 11 1018.0 1017.9 0.0
12/11:00pm 22.6 22.6 18.2 76 2.8 SE 15 24 8 13 1018.2 1018.1 0.0
12/10:30pm 22.7 22.5 17.6 73 3.2 SE 15 22 8 12 1018.1 1018.0 0.0
12/10:00pm 22.9 22.4 16.9 69 3.7 SE 15 26 8 14 1017.9 1017.8 0.0
12/09:30pm 23.1 22.7 16.2 65 4.2 SE 13 20 7 11 1017.8 1017.7 0.0
12/09:00pm 23.5 23.6 16.5 65 4.3 SE 11 20 6 11 1017.7 1017.6 0.0
12/08:30pm 23.8 24.2 16.3 63 4.6 SE 9 17 5 9 1017.6 1017.5 0.0
12/08:00pm 24.4 23.4 15.6 58 5.3 ESE 15 26 8 14 1017.2 1017.1 0.0
12/07:30pm 25.0 23.5 15.3 55 5.8 ESE 17 32 9 17 1017.0 1016.9 0.0
12/07:00pm 25.4 23.5 14.2 50 6.6 ESE 17 26 9 14 1016.5 1016.4 0.0
12/06:30pm 25.8 24.5 13.6 47 7.2 ESE 13 22 7 12 1016.1 1016.0 0.0
12/06:00pm 26.6 24.0 13.7 45 7.6 ESE 20 37 11 20 1015.6 1015.5 0.0
12/05:30pm 27.4 24.8 13.7 43 8.1 ESE 20 37 11 20 1015.4 1015.3 0.0

Other formats

Comma delimited format used in spreadsheet applications
http://www.bom.gov.au/fwo/IDD60801/IDD60801.95146.axf

JavaScript Object Notation format (JSON) in row-major order
http://www.bom.gov.au/fwo/IDD60801/IDD60801.95146.json

Data quality

Most of these data are generated automatically and are frequently updated. Quality checks on data are not normally performed. It is possible for incorrect values to appear. Refer to information at About Latest Weather Observations and please check the disclaimer before using these data.